sensor_id;sensor_type;location;lat;lon;timestamp;P1;durP1;ratioP1;P2;durP2;ratioP2
2480;SDS011;57396;48.742;9.128;2023-02-13T00:01:08;33.70;;;18.40;;
2480;SDS011;57396;48.742;9.128;2023-02-13T00:03:34;25.03;;;16.47;;
2480;SDS011;57396;48.742;9.128;2023-02-13T00:06:00;26.37;;;16.40;;
2480;SDS011;57396;48.742;9.128;2023-02-13T00:08:25;28.77;;;17.87;;
2480;SDS011;57396;48.742;9.128;2023-02-13T00:10:51;27.67;;;17.10;;
2480;SDS011;57396;48.742;9.128;2023-02-13T00:13:16;29.90;;;18.00;;
2480;SDS011;57396;48.742;9.128;2023-02-13T00:15:42;29.27;;;17.63;;
2480;SDS011;57396;48.742;9.128;2023-02-13T00:18:07;30.50;;;19.00;;
2480;SDS011;57396;48.742;9.128;2023-02-13T00:20:32;30.33;;;18.53;;
2480;SDS011;57396;48.742;9.128;2023-02-13T00:22:58;32.00;;;18.87;;
2480;SDS011;57396;48.742;9.128;2023-02-13T00:25:24;29.20;;;17.23;;
2480;SDS011;57396;48.742;9.128;2023-02-13T00:27:50;27.30;;;17.20;;
2480;SDS011;57396;48.742;9.128;2023-02-13T00:30:16;30.07;;;18.30;;
2480;SDS011;57396;48.742;9.128;2023-02-13T00:32:41;26.40;;;16.67;;
2480;SDS011;57396;48.742;9.128;2023-02-13T00:35:07;25.53;;;15.90;;
2480;SDS011;57396;48.742;9.128;2023-02-13T00:37:32;27.00;;;16.90;;
2480;SDS011;57396;48.742;9.128;2023-02-13T00:39:58;25.03;;;16.10;;
2480;SDS011;57396;48.742;9.128;2023-02-13T00:42:23;29.60;;;16.70;;
2480;SDS011;57396;48.742;9.128;2023-02-13T00:44:51;26.07;;;16.30;;
2480;SDS011;57396;48.742;9.128;2023-02-13T00:47:17;29.00;;;16.43;;
2480;SDS011;57396;48.742;9.128;2023-02-13T00:49:42;25.33;;;16.40;;
2480;SDS011;57396;48.742;9.128;2023-02-13T00:52:08;25.83;;;16.00;;
2480;SDS011;57396;48.742;9.128;2023-02-13T00:54:33;25.00;;;15.30;;
2480;SDS011;57396;48.742;9.128;2023-02-13T00:56:59;30.30;;;17.37;;
2480;SDS011;57396;48.742;9.128;2023-02-13T00:59:24;24.90;;;15.90;;
2480;SDS011;57396;48.742;9.128;2023-02-13T01:01:49;25.83;;;15.87;;
2480;SDS011;57396;48.742;9.128;2023-02-13T01:04:15;25.20;;;15.83;;
2480;SDS011;57396;48.742;9.128;2023-02-13T01:06:40;26.90;;;16.80;;
2480;SDS011;57396;48.742;9.128;2023-02-13T01:09:06;25.90;;;15.97;;
2480;SDS011;57396;48.742;9.128;2023-02-13T01:11:31;30.07;;;17.20;;
2480;SDS011;57396;48.742;9.128;2023-02-13T01:13:57;25.30;;;15.50;;
2480;SDS011;57396;48.742;9.128;2023-02-13T01:16:22;28.50;;;15.60;;
2480;SDS011;57396;48.742;9.128;2023-02-13T01:18:47;23.07;;;15.20;;
2480;SDS011;57396;48.742;9.128;2023-02-13T01:21:17;25.07;;;15.67;;
2480;SDS011;57396;48.742;9.128;2023-02-13T01:23:44;28.10;;;16.90;;
2480;SDS011;57396;48.742;9.128;2023-02-13T01:26:12;28.57;;;16.93;;
2480;SDS011;57396;48.742;9.128;2023-02-13T01:28:41;29.07;;;16.73;;
2480;SDS011;57396;48.742;9.128;2023-02-13T01:31:07;26.87;;;15.03;;
2480;SDS011;57396;48.742;9.128;2023-02-13T01:33:32;24.47;;;15.87;;
2480;SDS011;57396;48.742;9.128;2023-02-13T01:36:04;25.40;;;15.73;;
2480;SDS011;57396;48.742;9.128;2023-02-13T01:38:30;25.37;;;15.20;;
2480;SDS011;57396;48.742;9.128;2023-02-13T01:40:56;25.73;;;15.53;;
2480;SDS011;57396;48.742;9.128;2023-02-13T01:43:21;28.43;;;16.07;;
2480;SDS011;57396;48.742;9.128;2023-02-13T01:45:49;29.13;;;16.77;;
2480;SDS011;57396;48.742;9.128;2023-02-13T01:48:20;24.97;;;16.07;;
2480;SDS011;57396;48.742;9.128;2023-02-13T01:50:58;27.67;;;16.30;;
2480;SDS011;57396;48.742;9.128;2023-02-13T01:53:27;33.43;;;18.23;;
2480;SDS011;57396;48.742;9.128;2023-02-13T01:56:02;27.37;;;16.93;;
2480;SDS011;57396;48.742;9.128;2023-02-13T01:58:33;29.30;;;17.00;;
2480;SDS011;57396;48.742;9.128;2023-02-13T02:01:00;29.80;;;16.40;;
2480;SDS011;57396;48.742;9.128;2023-02-13T02:06:24;25.90;;;15.57;;
2480;SDS011;57396;48.742;9.128;2023-02-13T02:08:51;28.27;;;16.27;;
2480;SDS011;57396;48.742;9.128;2023-02-13T02:11:35;32.40;;;16.67;;
2480;SDS011;57396;48.742;9.128;2023-02-13T02:14:06;26.67;;;16.83;;
2480;SDS011;57396;48.742;9.128;2023-02-13T02:16:32;26.67;;;15.80;;
2480;SDS011;57396;48.742;9.128;2023-02-13T02:18:57;30.57;;;18.30;;
2480;SDS011;57396;48.742;9.128;2023-02-13T02:24:00;26.60;;;17.83;;
2480;SDS011;57396;48.742;9.128;2023-02-13T02:42:57;28.70;;;16.50;;
2480;SDS011;57396;48.742;9.128;2023-02-13T02:45:55;31.27;;;16.90;;
2480;SDS011;57396;48.742;9.128;2023-02-13T02:48:31;29.70;;;17.10;;
2480;SDS011;57396;48.742;9.128;2023-02-13T02:51:20;29.23;;;16.70;;
2480;SDS011;57396;48.742;9.128;2023-02-13T02:56:52;25.90;;;15.30;;
2480;SDS011;57396;48.742;9.128;2023-02-13T02:59:18;30.67;;;17.70;;
2480;SDS011;57396;48.742;9.128;2023-02-13T03:02:03;29.53;;;16.37;;
2480;SDS011;57396;48.742;9.128;2023-02-13T03:04:50;31.40;;;17.90;;
2480;SDS011;57396;48.742;9.128;2023-02-13T03:07:52;30.63;;;17.47;;
2480;SDS011;57396;48.742;9.128;2023-02-13T03:10:25;34.90;;;17.60;;
2480;SDS011;57396;48.742;9.128;2023-02-13T03:13:11;31.37;;;17.93;;
2480;SDS011;57396;48.742;9.128;2023-02-13T03:15:48;35.00;;;18.83;;
2480;SDS011;57396;48.742;9.128;2023-02-13T03:18:35;26.87;;;16.77;;
2480;SDS011;57396;48.742;9.128;2023-02-13T03:32:44;31.13;;;16.77;;
2480;SDS011;57396;48.742;9.128;2023-02-13T03:35:36;29.47;;;17.40;;
2480;SDS011;57396;48.742;9.128;2023-02-13T03:41:18;30.70;;;16.93;;
2480;SDS011;57396;48.742;9.128;2023-02-13T03:46:22;32.63;;;17.40;;
2480;SDS011;57396;48.742;9.128;2023-02-13T03:48:49;32.67;;;18.47;;
2480;SDS011;57396;48.742;9.128;2023-02-13T03:51:38;30.00;;;16.50;;
2480;SDS011;57396;48.742;9.128;2023-02-13T03:54:16;34.20;;;17.93;;
2480;SDS011;57396;48.742;9.128;2023-02-13T03:57:08;31.03;;;17.70;;
2480;SDS011;57396;48.742;9.128;2023-02-13T03:59:52;29.23;;;16.13;;
2480;SDS011;57396;48.742;9.128;2023-02-13T04:02:21;31.87;;;18.80;;
2480;SDS011;57396;48.742;9.128;2023-02-13T04:04:51;31.03;;;17.70;;
2480;SDS011;57396;48.742;9.128;2023-02-13T04:07:22;29.57;;;16.50;;
2480;SDS011;57396;48.742;9.128;2023-02-13T04:09:58;33.00;;;17.90;;
2480;SDS011;57396;48.742;9.128;2023-02-13T04:12:26;32.90;;;17.83;;
2480;SDS011;57396;48.742;9.128;2023-02-13T04:15:07;31.63;;;17.00;;
2480;SDS011;57396;48.742;9.128;2023-02-13T04:17:41;27.00;;;16.53;;
2480;SDS011;57396;48.742;9.128;2023-02-13T04:20:09;28.30;;;16.07;;
2480;SDS011;57396;48.742;9.128;2023-02-13T04:22:40;33.70;;;17.37;;
2480;SDS011;57396;48.742;9.128;2023-02-13T04:25:06;32.00;;;17.80;;
2480;SDS011;57396;48.742;9.128;2023-02-13T04:27:32;31.90;;;18.50;;
2480;SDS011;57396;48.742;9.128;2023-02-13T04:29:57;32.03;;;17.80;;
2480;SDS011;57396;48.742;9.128;2023-02-13T04:32:23;34.23;;;18.43;;
2480;SDS011;57396;48.742;9.128;2023-02-13T04:34:48;34.50;;;18.17;;
2480;SDS011;57396;48.742;9.128;2023-02-13T04:37:14;35.07;;;18.33;;
2480;SDS011;57396;48.742;9.128;2023-02-13T04:39:39;31.93;;;17.97;;
2480;SDS011;57396;48.742;9.128;2023-02-13T04:42:04;29.40;;;16.23;;
2480;SDS011;57396;48.742;9.128;2023-02-13T04:44:30;29.43;;;17.60;;
2480;SDS011;57396;48.742;9.128;2023-02-13T04:46:55;33.17;;;17.00;;
2480;SDS011;57396;48.742;9.128;2023-02-13T04:49:21;31.90;;;16.13;;
2480;SDS011;57396;48.742;9.128;2023-02-13T04:51:46;32.90;;;17.77;;
2480;SDS011;57396;48.742;9.128;2023-02-13T04:54:12;30.53;;;17.60;;
2480;SDS011;57396;48.742;9.128;2023-02-13T04:56:37;31.73;;;15.50;;
2480;SDS011;57396;48.742;9.128;2023-02-13T04:59:03;27.23;;;16.27;;
2480;SDS011;57396;48.742;9.128;2023-02-13T05:01:28;29.10;;;16.00;;
2480;SDS011;57396;48.742;9.128;2023-02-13T05:03:53;26.87;;;15.90;;
2480;SDS011;57396;48.742;9.128;2023-02-13T05:06:19;29.70;;;16.93;;
2480;SDS011;57396;48.742;9.128;2023-02-13T05:08:44;31.30;;;17.70;;
2480;SDS011;57396;48.742;9.128;2023-02-13T05:11:10;29.80;;;16.57;;
2480;SDS011;57396;48.742;9.128;2023-02-13T05:13:35;31.77;;;17.13;;
2480;SDS011;57396;48.742;9.128;2023-02-13T05:16:01;29.67;;;16.73;;
2480;SDS011;57396;48.742;9.128;2023-02-13T05:18:26;32.10;;;17.23;;
2480;SDS011;57396;48.742;9.128;2023-02-13T05:20:52;31.40;;;17.10;;
2480;SDS011;57396;48.742;9.128;2023-02-13T05:23:40;31.60;;;18.27;;
2480;SDS011;57396;48.742;9.128;2023-02-13T05:26:06;30.93;;;17.10;;
2480;SDS011;57396;48.742;9.128;2023-02-13T05:28:31;32.03;;;17.13;;
2480;SDS011;57396;48.742;9.128;2023-02-13T05:31:15;30.57;;;18.00;;
2480;SDS011;57396;48.742;9.128;2023-02-13T05:33:41;29.27;;;16.80;;
2480;SDS011;57396;48.742;9.128;2023-02-13T05:36:06;28.90;;;16.13;;
2480;SDS011;57396;48.742;9.128;2023-02-13T05:38:32;34.60;;;17.33;;
2480;SDS011;57396;48.742;9.128;2023-02-13T05:40:58;37.13;;;19.23;;
2480;SDS011;57396;48.742;9.128;2023-02-13T05:43:24;31.93;;;19.33;;
2480;SDS011;57396;48.742;9.128;2023-02-13T05:45:50;30.77;;;17.97;;
2480;SDS011;57396;48.742;9.128;2023-02-13T05:48:16;32.07;;;17.73;;
2480;SDS011;57396;48.742;9.128;2023-02-13T05:50:41;34.57;;;18.10;;
2480;SDS011;57396;48.742;9.128;2023-02-13T05:53:07;33.10;;;18.40;;
2480;SDS011;57396;48.742;9.128;2023-02-13T05:55:32;35.50;;;18.70;;
2480;SDS011;57396;48.742;9.128;2023-02-13T05:57:58;34.37;;;18.60;;
2480;SDS011;57396;48.742;9.128;2023-02-13T06:00:23;32.67;;;17.77;;
2480;SDS011;57396;48.742;9.128;2023-02-13T06:02:49;33.53;;;18.10;;
2480;SDS011;57396;48.742;9.128;2023-02-13T06:05:15;30.83;;;17.60;;
2480;SDS011;57396;48.742;9.128;2023-02-13T06:07:40;36.80;;;17.90;;
2480;SDS011;57396;48.742;9.128;2023-02-13T06:10:06;36.83;;;18.67;;
2480;SDS011;57396;48.742;9.128;2023-02-13T06:12:31;35.00;;;17.97;;
2480;SDS011;57396;48.742;9.128;2023-02-13T06:14:57;30.33;;;18.20;;
2480;SDS011;57396;48.742;9.128;2023-02-13T06:17:22;35.93;;;19.43;;
2480;SDS011;57396;48.742;9.128;2023-02-13T06:19:47;28.67;;;17.10;;
2480;SDS011;57396;48.742;9.128;2023-02-13T06:22:13;32.90;;;18.27;;
2480;SDS011;57396;48.742;9.128;2023-02-13T06:24:38;31.50;;;17.27;;
2480;SDS011;57396;48.742;9.128;2023-02-13T06:27:04;31.60;;;18.30;;
2480;SDS011;57396;48.742;9.128;2023-02-13T06:29:29;32.10;;;17.87;;
2480;SDS011;57396;48.742;9.128;2023-02-13T06:31:56;35.43;;;18.73;;
2480;SDS011;57396;48.742;9.128;2023-02-13T06:34:22;34.50;;;19.43;;
2480;SDS011;57396;48.742;9.128;2023-02-13T06:36:47;33.43;;;18.70;;
2480;SDS011;57396;48.742;9.128;2023-02-13T06:39:13;43.10;;;19.37;;
2480;SDS011;57396;48.742;9.128;2023-02-13T06:41:39;37.60;;;19.67;;
2480;SDS011;57396;48.742;9.128;2023-02-13T06:44:04;33.17;;;19.70;;
2480;SDS011;57396;48.742;9.128;2023-02-13T06:46:29;38.73;;;20.50;;
2480;SDS011;57396;48.742;9.128;2023-02-13T06:48:55;34.63;;;20.13;;
2480;SDS011;57396;48.742;9.128;2023-02-13T06:51:20;39.23;;;20.00;;
2480;SDS011;57396;48.742;9.128;2023-02-13T06:53:46;38.50;;;21.17;;
2480;SDS011;57396;48.742;9.128;2023-02-13T06:56:11;35.73;;;20.00;;
2480;SDS011;57396;48.742;9.128;2023-02-13T06:58:37;37.37;;;21.07;;
2480;SDS011;57396;48.742;9.128;2023-02-13T07:01:04;42.90;;;22.13;;
2480;SDS011;57396;48.742;9.128;2023-02-13T07:03:29;42.57;;;21.40;;
2480;SDS011;57396;48.742;9.128;2023-02-13T07:05:55;41.10;;;23.17;;
2480;SDS011;57396;48.742;9.128;2023-02-13T07:08:21;41.50;;;22.07;;
2480;SDS011;57396;48.742;9.128;2023-02-13T07:10:46;40.60;;;21.70;;
2480;SDS011;57396;48.742;9.128;2023-02-13T07:13:12;43.33;;;22.30;;
2480;SDS011;57396;48.742;9.128;2023-02-13T07:15:38;40.50;;;22.30;;
2480;SDS011;57396;48.742;9.128;2023-02-13T07:18:04;44.27;;;24.43;;
2480;SDS011;57396;48.742;9.128;2023-02-13T07:20:29;44.53;;;26.00;;
2480;SDS011;57396;48.742;9.128;2023-02-13T07:23:02;43.73;;;24.70;;
2480;SDS011;57396;48.742;9.128;2023-02-13T07:25:29;43.87;;;24.67;;
2480;SDS011;57396;48.742;9.128;2023-02-13T07:27:54;39.23;;;22.73;;
2480;SDS011;57396;48.742;9.128;2023-02-13T07:30:22;43.07;;;24.47;;
2480;SDS011;57396;48.742;9.128;2023-02-13T07:32:47;36.23;;;21.27;;
2480;SDS011;57396;48.742;9.128;2023-02-13T07:35:13;39.00;;;21.27;;
2480;SDS011;57396;48.742;9.128;2023-02-13T07:37:38;36.13;;;19.30;;
2480;SDS011;57396;48.742;9.128;2023-02-13T07:40:04;38.53;;;20.10;;
2480;SDS011;57396;48.742;9.128;2023-02-13T07:42:34;35.40;;;20.60;;
2480;SDS011;57396;48.742;9.128;2023-02-13T07:44:59;35.43;;;21.40;;
2480;SDS011;57396;48.742;9.128;2023-02-13T07:47:25;33.60;;;19.77;;
2480;SDS011;57396;48.742;9.128;2023-02-13T07:49:50;39.27;;;20.03;;
2480;SDS011;57396;48.742;9.128;2023-02-13T07:52:16;37.07;;;20.77;;
2480;SDS011;57396;48.742;9.128;2023-02-13T07:54:41;35.53;;;20.60;;
2480;SDS011;57396;48.742;9.128;2023-02-13T07:57:13;38.00;;;20.30;;
2480;SDS011;57396;48.742;9.128;2023-02-13T07:59:41;33.93;;;20.10;;
2480;SDS011;57396;48.742;9.128;2023-02-13T08:02:13;35.50;;;21.00;;
2480;SDS011;57396;48.742;9.128;2023-02-13T08:04:40;36.60;;;20.57;;
2480;SDS011;57396;48.742;9.128;2023-02-13T08:07:06;42.10;;;22.53;;
2480;SDS011;57396;48.742;9.128;2023-02-13T08:09:31;34.23;;;20.20;;
2480;SDS011;57396;48.742;9.128;2023-02-13T08:12:15;35.03;;;19.10;;
2480;SDS011;57396;48.742;9.128;2023-02-13T08:14:41;30.80;;;18.43;;
2480;SDS011;57396;48.742;9.128;2023-02-13T08:17:07;28.60;;;17.40;;
2480;SDS011;57396;48.742;9.128;2023-02-13T08:19:33;24.00;;;16.30;;
2480;SDS011;57396;48.742;9.128;2023-02-13T08:21:59;29.83;;;17.10;;
2480;SDS011;57396;48.742;9.128;2023-02-13T08:24:25;26.03;;;16.70;;
2480;SDS011;57396;48.742;9.128;2023-02-13T08:26:50;23.70;;;16.17;;
2480;SDS011;57396;48.742;9.128;2023-02-13T08:29:16;24.20;;;15.03;;
2480;SDS011;57396;48.742;9.128;2023-02-13T08:31:41;23.00;;;15.60;;
2480;SDS011;57396;48.742;9.128;2023-02-13T08:34:08;21.47;;;14.40;;
2480;SDS011;57396;48.742;9.128;2023-02-13T08:36:33;19.80;;;14.60;;
2480;SDS011;57396;48.742;9.128;2023-02-13T08:38:59;21.20;;;14.00;;
2480;SDS011;57396;48.742;9.128;2023-02-13T08:41:24;24.27;;;15.07;;
2480;SDS011;57396;48.742;9.128;2023-02-13T08:43:50;21.00;;;14.67;;
2480;SDS011;57396;48.742;9.128;2023-02-13T08:46:15;23.43;;;14.80;;
2480;SDS011;57396;48.742;9.128;2023-02-13T08:48:41;20.40;;;14.20;;
2480;SDS011;57396;48.742;9.128;2023-02-13T08:51:07;20.67;;;14.10;;
2480;SDS011;57396;48.742;9.128;2023-02-13T08:53:34;20.67;;;14.23;;
2480;SDS011;57396;48.742;9.128;2023-02-13T08:56:00;20.57;;;13.43;;
2480;SDS011;57396;48.742;9.128;2023-02-13T08:58:26;19.47;;;13.67;;
2480;SDS011;57396;48.742;9.128;2023-02-13T09:00:51;23.00;;;15.07;;
2480;SDS011;57396;48.742;9.128;2023-02-13T09:03:17;20.60;;;13.17;;
2480;SDS011;57396;48.742;9.128;2023-02-13T09:05:43;17.60;;;12.77;;
2480;SDS011;57396;48.742;9.128;2023-02-13T09:08:08;18.27;;;13.57;;
2480;SDS011;57396;48.742;9.128;2023-02-13T09:10:36;19.27;;;12.43;;
2480;SDS011;57396;48.742;9.128;2023-02-13T09:13:02;19.80;;;12.80;;
2480;SDS011;57396;48.742;9.128;2023-02-13T09:15:28;17.20;;;12.70;;
2480;SDS011;57396;48.742;9.128;2023-02-13T09:17:53;17.60;;;12.93;;
2480;SDS011;57396;48.742;9.128;2023-02-13T09:20:19;16.43;;;12.03;;
2480;SDS011;57396;48.742;9.128;2023-02-13T09:22:44;17.97;;;12.53;;
2480;SDS011;57396;48.742;9.128;2023-02-13T09:25:10;16.70;;;12.40;;
2480;SDS011;57396;48.742;9.128;2023-02-13T09:27:35;17.00;;;12.50;;
2480;SDS011;57396;48.742;9.128;2023-02-13T09:30:06;19.13;;;12.30;;
2480;SDS011;57396;48.742;9.128;2023-02-13T09:32:51;17.20;;;12.13;;
2480;SDS011;57396;48.742;9.128;2023-02-13T09:35:18;14.67;;;11.30;;
2480;SDS011;57396;48.742;9.128;2023-02-13T09:37:44;17.37;;;11.73;;
2480;SDS011;57396;48.742;9.128;2023-02-13T09:40:20;12.47;;;10.80;;
2480;SDS011;57396;48.742;9.128;2023-02-13T09:42:50;19.93;;;12.20;;
2480;SDS011;57396;48.742;9.128;2023-02-13T09:45:16;15.60;;;11.20;;
2480;SDS011;57396;48.742;9.128;2023-02-13T09:47:44;17.50;;;12.50;;
2480;SDS011;57396;48.742;9.128;2023-02-13T09:52:42;14.30;;;11.20;;
2480;SDS011;57396;48.742;9.128;2023-02-13T09:55:13;14.80;;;11.97;;
2480;SDS011;57396;48.742;9.128;2023-02-13T10:00:28;14.10;;;10.70;;
2480;SDS011;57396;48.742;9.128;2023-02-13T10:08:04;15.30;;;12.20;;
2480;SDS011;57396;48.742;9.128;2023-02-13T10:11:18;13.83;;;11.47;;
2480;SDS011;57396;48.742;9.128;2023-02-13T10:16:26;16.67;;;11.77;;
2480;SDS011;57396;48.742;9.128;2023-02-13T10:18:53;13.23;;;10.60;;
2480;SDS011;57396;48.742;9.128;2023-02-13T10:21:23;14.37;;;10.80;;
2480;SDS011;57396;48.742;9.128;2023-02-13T10:26:23;14.83;;;11.20;;
2480;SDS011;57396;48.742;9.128;2023-02-13T10:29:09;14.57;;;10.13;;
2480;SDS011;57396;48.742;9.128;2023-02-13T10:31:58;13.70;;;10.73;;
2480;SDS011;57396;48.742;9.128;2023-02-13T10:34:25;13.80;;;10.77;;
2480;SDS011;57396;48.742;9.128;2023-02-13T10:36:51;14.90;;;10.90;;
2480;SDS011;57396;48.742;9.128;2023-02-13T10:39:21;15.00;;;11.83;;
2480;SDS011;57396;48.742;9.128;2023-02-13T10:41:51;16.60;;;11.23;;
2480;SDS011;57396;48.742;9.128;2023-02-13T10:47:21;13.37;;;10.90;;
2480;SDS011;57396;48.742;9.128;2023-02-13T10:55:28;13.10;;;10.83;;
2480;SDS011;57396;48.742;9.128;2023-02-13T11:00:37;15.87;;;10.83;;
2480;SDS011;57396;48.742;9.128;2023-02-13T11:03:18;12.73;;;10.20;;
2480;SDS011;57396;48.742;9.128;2023-02-13T11:05:45;21.63;;;10.23;;
2480;SDS011;57396;48.742;9.128;2023-02-13T11:08:31;14.07;;;10.50;;
2480;SDS011;57396;48.742;9.128;2023-02-13T11:10:57;15.83;;;10.07;;
2480;SDS011;57396;48.742;9.128;2023-02-13T11:13:24;14.10;;;11.33;;
2480;SDS011;57396;48.742;9.128;2023-02-13T11:16:16;12.90;;;9.97;;
2480;SDS011;57396;48.742;9.128;2023-02-13T11:18:39;15.97;;;11.03;;
2480;SDS011;57396;48.742;9.128;2023-02-13T11:21:19;12.27;;;10.73;;
2480;SDS011;57396;48.742;9.128;2023-02-13T11:23:48;12.47;;;10.10;;
2480;SDS011;57396;48.742;9.128;2023-02-13T11:26:22;12.20;;;9.83;;
2480;SDS011;57396;48.742;9.128;2023-02-13T11:28:59;14.60;;;10.80;;
2480;SDS011;57396;48.742;9.128;2023-02-13T11:33:52;14.87;;;11.27;;
2480;SDS011;57396;48.742;9.128;2023-02-13T11:36:32;13.40;;;10.83;;
2480;SDS011;57396;48.742;9.128;2023-02-13T11:41:26;10.97;;;9.50;;
2480;SDS011;57396;48.742;9.128;2023-02-13T11:43:53;14.83;;;9.93;;
2480;SDS011;57396;48.742;9.128;2023-02-13T11:46:25;9.80;;;8.20;;
2480;SDS011;57396;48.742;9.128;2023-02-13T11:49:03;11.23;;;9.80;;
2480;SDS011;57396;48.742;9.128;2023-02-13T11:52:13;13.10;;;9.67;;
2480;SDS011;57396;48.742;9.128;2023-02-13T11:59:40;10.60;;;8.40;;
2480;SDS011;57396;48.742;9.128;2023-02-13T12:02:12;9.40;;;8.37;;
2480;SDS011;57396;48.742;9.128;2023-02-13T12:04:39;8.90;;;7.90;;
2480;SDS011;57396;48.742;9.128;2023-02-13T12:09:38;8.80;;;7.93;;
2480;SDS011;57396;48.742;9.128;2023-02-13T12:12:04;8.70;;;7.80;;
2480;SDS011;57396;48.742;9.128;2023-02-13T12:14:32;9.77;;;7.23;;
2480;SDS011;57396;48.742;9.128;2023-02-13T12:19:48;8.37;;;6.90;;
2480;SDS011;57396;48.742;9.128;2023-02-13T12:27:43;10.27;;;7.90;;
2480;SDS011;57396;48.742;9.128;2023-02-13T12:32:59;10.17;;;8.53;;
2480;SDS011;57396;48.742;9.128;2023-02-13T12:35:43;8.97;;;8.07;;
2480;SDS011;57396;48.742;9.128;2023-02-13T12:41:14;11.87;;;9.20;;
2480;SDS011;57396;48.742;9.128;2023-02-13T12:51:50;11.13;;;9.30;;
2480;SDS011;57396;48.742;9.128;2023-02-13T12:57:14;11.10;;;9.13;;
2480;SDS011;57396;48.742;9.128;2023-02-13T13:03:01;10.23;;;9.00;;
2480;SDS011;57396;48.742;9.128;2023-02-13T13:05:36;9.83;;;8.80;;
2480;SDS011;57396;48.742;9.128;2023-02-13T13:13:44;11.67;;;9.83;;
2480;SDS011;57396;48.742;9.128;2023-02-13T13:16:27;12.10;;;10.47;;
2480;SDS011;57396;48.742;9.128;2023-02-13T13:27:44;15.80;;;12.17;;
2480;SDS011;57396;48.742;9.128;2023-02-13T13:32:42;13.20;;;10.83;;
2480;SDS011;57396;48.742;9.128;2023-02-13T13:35:12;14.10;;;10.90;;
2480;SDS011;57396;48.742;9.128;2023-02-13T13:38:01;13.87;;;11.60;;
2480;SDS011;57396;48.742;9.128;2023-02-13T13:43:17;13.00;;;10.90;;
2480;SDS011;57396;48.742;9.128;2023-02-13T13:45:49;18.40;;;11.90;;
2480;SDS011;57396;48.742;9.128;2023-02-13T13:48:34;14.40;;;11.97;;
2480;SDS011;57396;48.742;9.128;2023-02-13T13:51:04;13.93;;;11.90;;
2480;SDS011;57396;48.742;9.128;2023-02-13T13:53:30;15.80;;;11.73;;
2480;SDS011;57396;48.742;9.128;2023-02-13T14:03:44;14.00;;;11.00;;
2480;SDS011;57396;48.742;9.128;2023-02-13T14:06:11;14.10;;;11.10;;
2480;SDS011;57396;48.742;9.128;2023-02-13T14:11:04;17.00;;;11.97;;
2480;SDS011;57396;48.742;9.128;2023-02-13T14:13:34;17.00;;;11.53;;
2480;SDS011;57396;48.742;9.128;2023-02-13T14:16:01;16.17;;;12.50;;
2480;SDS011;57396;48.742;9.128;2023-02-13T14:18:27;16.03;;;11.23;;
2480;SDS011;57396;48.742;9.128;2023-02-13T14:20:54;16.80;;;11.37;;
2480;SDS011;57396;48.742;9.128;2023-02-13T14:23:27;17.53;;;11.93;;
2480;SDS011;57396;48.742;9.128;2023-02-13T14:28:34;13.80;;;11.37;;
2480;SDS011;57396;48.742;9.128;2023-02-13T14:31:09;13.27;;;10.93;;
2480;SDS011;57396;48.742;9.128;2023-02-13T14:33:44;14.13;;;10.93;;
2480;SDS011;57396;48.742;9.128;2023-02-13T14:36:20;15.60;;;11.20;;
2480;SDS011;57396;48.742;9.128;2023-02-13T14:38:54;16.43;;;11.70;;
2480;SDS011;57396;48.742;9.128;2023-02-13T14:46:53;15.60;;;11.97;;
2480;SDS011;57396;48.742;9.128;2023-02-13T14:49:23;17.23;;;12.67;;
2480;SDS011;57396;48.742;9.128;2023-02-13T14:51:52;27.43;;;12.17;;
2480;SDS011;57396;48.742;9.128;2023-02-13T14:57:26;18.27;;;13.03;;
2480;SDS011;57396;48.742;9.128;2023-02-13T14:59:54;17.50;;;12.43;;
2480;SDS011;57396;48.742;9.128;2023-02-13T15:02:23;19.70;;;12.37;;
2480;SDS011;57396;48.742;9.128;2023-02-13T15:07:45;17.93;;;11.30;;
2480;SDS011;57396;48.742;9.128;2023-02-13T15:12:59;15.00;;;12.50;;
2480;SDS011;57396;48.742;9.128;2023-02-13T15:15:26;15.73;;;11.80;;
2480;SDS011;57396;48.742;9.128;2023-02-13T15:18:01;18.57;;;12.87;;
2480;SDS011;57396;48.742;9.128;2023-02-13T15:20:32;14.90;;;12.67;;
2480;SDS011;57396;48.742;9.128;2023-02-13T15:22:59;15.53;;;12.33;;
2480;SDS011;57396;48.742;9.128;2023-02-13T15:27:53;17.63;;;12.30;;
2480;SDS011;57396;48.742;9.128;2023-02-13T15:30:21;24.03;;;13.40;;
2480;SDS011;57396;48.742;9.128;2023-02-13T15:32:55;16.00;;;12.40;;
2480;SDS011;57396;48.742;9.128;2023-02-13T15:35:27;21.07;;;12.40;;
2480;SDS011;57396;48.742;9.128;2023-02-13T15:37:57;16.60;;;12.07;;
2480;SDS011;57396;48.742;9.128;2023-02-13T15:40:24;16.57;;;11.20;;
2480;SDS011;57396;48.742;9.128;2023-02-13T15:42:50;15.20;;;11.40;;
2480;SDS011;57396;48.742;9.128;2023-02-13T15:45:16;14.63;;;11.40;;
2480;SDS011;57396;48.742;9.128;2023-02-13T15:47:42;14.60;;;10.87;;
2480;SDS011;57396;48.742;9.128;2023-02-13T15:50:21;15.40;;;11.60;;
2480;SDS011;57396;48.742;9.128;2023-02-13T15:52:51;13.73;;;10.17;;
2480;SDS011;57396;48.742;9.128;2023-02-13T15:55:22;16.97;;;11.40;;
2480;SDS011;57396;48.742;9.128;2023-02-13T15:57:49;12.90;;;10.73;;
2480;SDS011;57396;48.742;9.128;2023-02-13T16:00:38;15.93;;;10.80;;
2480;SDS011;57396;48.742;9.128;2023-02-13T16:03:03;12.43;;;10.57;;
2480;SDS011;57396;48.742;9.128;2023-02-13T16:05:44;14.03;;;10.20;;
2480;SDS011;57396;48.742;9.128;2023-02-13T16:11:38;14.87;;;11.50;;
2480;SDS011;57396;48.742;9.128;2023-02-13T16:19:21;15.37;;;11.10;;
2480;SDS011;57396;48.742;9.128;2023-02-13T16:21:48;18.83;;;11.60;;
2480;SDS011;57396;48.742;9.128;2023-02-13T16:24:14;14.70;;;11.00;;
2480;SDS011;57396;48.742;9.128;2023-02-13T16:26:40;17.23;;;10.50;;
2480;SDS011;57396;48.742;9.128;2023-02-13T16:29:12;14.40;;;10.83;;
2480;SDS011;57396;48.742;9.128;2023-02-13T16:31:42;13.30;;;10.30;;
2480;SDS011;57396;48.742;9.128;2023-02-13T16:34:41;11.77;;;9.83;;
2480;SDS011;57396;48.742;9.128;2023-02-13T16:36:59;13.47;;;10.27;;
2480;SDS011;57396;48.742;9.128;2023-02-13T16:39:26;14.90;;;10.90;;
2480;SDS011;57396;48.742;9.128;2023-02-13T16:41:52;14.97;;;10.83;;
2480;SDS011;57396;48.742;9.128;2023-02-13T16:44:28;15.23;;;11.23;;
2480;SDS011;57396;48.742;9.128;2023-02-13T16:47:02;14.63;;;10.50;;
2480;SDS011;57396;48.742;9.128;2023-02-13T16:49:35;14.27;;;10.70;;
2480;SDS011;57396;48.742;9.128;2023-02-13T16:52:14;16.00;;;10.70;;
2480;SDS011;57396;48.742;9.128;2023-02-13T16:54:54;17.80;;;11.73;;
2480;SDS011;57396;48.742;9.128;2023-02-13T16:57:28;15.67;;;11.27;;
2480;SDS011;57396;48.742;9.128;2023-02-13T16:59:56;17.90;;;10.40;;
2480;SDS011;57396;48.742;9.128;2023-02-13T17:02:34;20.33;;;11.63;;
2480;SDS011;57396;48.742;9.128;2023-02-13T17:10:00;14.10;;;10.43;;
2480;SDS011;57396;48.742;9.128;2023-02-13T17:12:47;15.40;;;11.50;;
2480;SDS011;57396;48.742;9.128;2023-02-13T17:15:14;18.53;;;11.67;;
2480;SDS011;57396;48.742;9.128;2023-02-13T17:17:41;15.77;;;11.40;;
2480;SDS011;57396;48.742;9.128;2023-02-13T17:20:08;17.30;;;11.50;;
2480;SDS011;57396;48.742;9.128;2023-02-13T17:22:38;17.73;;;12.00;;
2480;SDS011;57396;48.742;9.128;2023-02-13T17:25:07;18.73;;;11.87;;
2480;SDS011;57396;48.742;9.128;2023-02-13T17:27:36;17.60;;;11.80;;
2480;SDS011;57396;48.742;9.128;2023-02-13T17:30:01;17.27;;;12.33;;
2480;SDS011;57396;48.742;9.128;2023-02-13T17:32:27;15.50;;;11.97;;
2480;SDS011;57396;48.742;9.128;2023-02-13T17:34:53;18.10;;;12.73;;
2480;SDS011;57396;48.742;9.128;2023-02-13T17:37:27;18.10;;;12.57;;
2480;SDS011;57396;48.742;9.128;2023-02-13T17:39:54;19.43;;;12.60;;
2480;SDS011;57396;48.742;9.128;2023-02-13T17:42:26;18.63;;;12.60;;